Time;durP1;ratioP1;P1;durP2;ratioP2;P2;SDS_P1;SDS_P2;PMS_P1;PMS_P2;Temp;Humidity;BMP_temperature;BMP_pressure;BME280_temperature;BME280_humidity;BME280_pressure;Samples;Min_cycle;Max_cycle;Signal;HPM_P1;HPM_P2
2021/03/26 00:02:16;;;;;;;66.70;37.58;;;;;;;8.86;73.58;101188.91;4964955;28;20050;-55
2021/03/26 00:04:43;;;;;;;65.72;38.50;;;;;;;8.76;73.92;101185.94;4961806;28;20053;-50
2021/03/26 00:07:10;;;;;;;65.45;37.30;;;;;;;8.74;73.50;101187.56;4963209;28;20528;-53
2021/03/26 00:09:36;;;;;;;63.95;35.05;;;;;;;9.14;72.08;101188.31;4962725;28;20050;-49
2021/03/26 00:12:11;;;;;;;65.07;36.58;;;;;;;9.44;71.47;101190.34;4962211;28;20134;-53
2021/03/26 00:14:38;;;;;;;69.07;37.45;;;;;;;9.52;70.74;101188.97;4962177;28;20400;-55
2021/03/26 00:17:05;;;;;;;62.92;34.38;;;;;;;9.44;70.13;101191.22;4962210;28;20066;-52
2021/03/26 00:19:32;;;;;;;68.43;36.67;;;;;;;9.06;71.80;101192.28;4962961;28;20055;-54
2021/03/26 00:21:58;;;;;;;63.00;35.67;;;;;;;9.48;70.19;101197.31;4961278;28;20047;-52
2021/03/26 00:24:25;;;;;;;69.10;36.47;;;;;;;9.50;70.31;101192.25;4962609;28;20068;-55
2021/03/26 00:26:51;;;;;;;65.80;38.13;;;;;;;9.18;71.40;101192.75;4960616;28;20069;-52
2021/03/26 00:29:20;;;;;;;68.82;38.13;;;;;;;8.99;72.12;101200.50;4963116;28;20055;-53
2021/03/26 00:31:47;;;;;;;65.55;37.60;;;;;;;9.16;71.17;101198.63;4960598;28;20042;-53
2021/03/26 00:34:14;;;;;;;64.10;35.70;;;;;;;9.11;71.50;101193.34;4959512;28;20057;-54
2021/03/26 00:36:41;;;;;;;67.82;38.40;;;;;;;8.64;73.61;101193.94;4961373;28;20166;-51
2021/03/26 00:39:07;;;;;;;65.80;36.67;;;;;;;8.64;73.34;101193.94;4964182;28;20050;-51
2021/03/26 00:41:35;;;;;;;68.20;35.95;;;;;;;8.88;72.14;101189.00;4964027;28;20508;-52
2021/03/26 00:44:03;;;;;;;65.47;37.35;;;;;;;8.93;72.13;101185.81;4961197;28;20055;-52
2021/03/26 00:46:30;;;;;;;63.88;36.25;;;;;;;8.50;73.83;101195.91;4962271;28;20049;-55
2021/03/26 00:48:57;;;;;;;65.95;36.72;;;;;;;8.49;74.43;101181.41;4960966;28;20117;-50
2021/03/26 00:51:24;;;;;;;59.10;34.40;;;;;;;8.47;74.46;101184.72;4962380;28;20051;-52
2021/03/26 00:53:50;;;;;;;65.95;36.00;;;;;;;8.12;75.19;101184.06;4960359;28;20059;-56
2021/03/26 00:56:17;;;;;;;65.60;36.50;;;;;;;7.68;77.60;101182.09;4962111;28;20054;-51
2021/03/26 00:58:43;;;;;;;64.50;37.58;;;;;;;7.47;79.40;101177.75;4960730;28;20062;-49
2021/03/26 01:01:10;;;;;;;70.80;39.33;;;;;;;7.44;79.53;101179.28;4962651;28;20058;-53
2021/03/26 01:03:36;;;;;;;68.05;36.50;;;;;;;7.44;79.65;101175.09;4962155;28;20050;-48
2021/03/26 01:06:07;;;;;;;67.97;36.40;;;;;;;7.43;79.70;101167.34;4961774;28;20051;-55
2021/03/26 01:08:34;;;;;;;69.70;37.17;;;;;;;7.52;78.98;101180.50;4961615;28;20106;-52
2021/03/26 01:11:22;;;;;;;64.82;36.42;;;;;;;7.21;80.14;101175.66;4960552;28;20146;-52
2021/03/26 01:13:49;;;;;;;62.97;35.92;;;;;;;7.17;80.58;101176.34;4960392;28;20047;-52
2021/03/26 01:16:19;;;;;;;61.22;35.88;;;;;;;7.04;81.05;101174.88;4961882;28;20138;-53
2021/03/26 01:18:46;;;;;;;62.60;34.42;;;;;;;6.92;81.55;101170.06;4959855;28;20051;-51
2021/03/26 01:21:18;;;;;;;67.68;36.35;;;;;;;6.83;82.36;101164.53;4960240;28;20062;-51
2021/03/26 01:23:45;;;;;;;62.10;35.05;;;;;;;6.81;82.50;101163.59;4961977;28;20047;-54
2021/03/26 01:26:12;;;;;;;59.75;35.22;;;;;;;6.74;82.93;101166.63;4963498;28;20177;-51
2021/03/26 01:28:39;;;;;;;64.88;36.28;;;;;;;6.59;83.78;101165.09;4961170;28;20053;-52
2021/03/26 01:31:11;;;;;;;65.93;33.78;;;;;;;6.70;83.19;101165.63;4961262;28;20054;-52
2021/03/26 01:33:38;;;;;;;62.45;34.53;;;;;;;6.61;83.77;101163.50;4960913;28;20073;-52
2021/03/26 01:36:05;;;;;;;65.03;36.25;;;;;;;6.56;83.88;101171.69;4960784;28;20057;-55
2021/03/26 01:38:32;;;;;;;66.63;35.63;;;;;;;6.40;85.71;101167.53;4961834;28;20066;-51
2021/03/26 01:41:04;;;;;;;64.60;35.63;;;;;;;6.39;85.64;101175.97;4960204;28;20517;-53
2021/03/26 01:43:37;;;;;;;68.43;36.92;;;;;;;6.35;86.64;101171.50;4961769;28;20055;-53
2021/03/26 01:46:08;;;;;;;64.57;36.80;;;;;;;6.11;87.26;101172.00;4960185;28;20047;-54
2021/03/26 01:48:41;;;;;;;64.63;36.88;;;;;;;6.25;86.97;101165.09;4961504;28;20066;-55
2021/03/26 01:51:25;;;;;;;65.72;36.50;;;;;;;6.14;87.60;101158.56;4961363;28;20039;-52
2021/03/26 01:53:52;;;;;;;61.40;36.65;;;;;;;6.18;87.72;101159.59;4960709;28;20054;-55
2021/03/26 01:56:19;;;;;;;68.60;36.97;;;;;;;6.01;88.14;101164.72;4961222;28;20061;-54
2021/03/26 01:58:45;;;;;;;72.78;37.90;;;;;;;5.84;89.67;101163.78;4959859;28;20500;-53
2021/03/26 02:01:25;;;;;;;65.93;36.88;;;;;;;5.73;90.58;101169.09;4961461;28;20050;-54
2021/03/26 02:03:57;;;;;;;75.57;38.58;;;;;;;5.78;90.74;101166.03;4960464;28;20520;-53
2021/03/26 02:06:27;;;;;;;60.47;36.72;;;;;;;5.69;90.79;101162.13;4961329;28;20130;-51
2021/03/26 02:09:12;;;;;;;68.55;37.60;;;;;;;5.67;91.07;101159.50;4959523;28;20055;-52
2021/03/26 02:11:44;;;;;;;70.10;36.00;;;;;;;5.75;91.17;101158.22;4960296;28;20481;-53
2021/03/26 02:14:19;;;;;;;70.55;38.55;;;;;;;5.82;90.92;101154.31;4961416;28;20043;-54
2021/03/26 02:16:46;;;;;;;68.75;37.97;;;;;;;5.93;90.48;101162.56;4959691;28;20781;-52
2021/03/26 02:19:35;;;;;;;59.17;35.78;;;;;;;6.03;89.88;101160.56;4957417;28;20488;-52
2021/03/26 02:22:04;;;;;;;70.88;37.55;;;;;;;6.04;89.86;101169.94;4960271;28;20068;-54
2021/03/26 02:24:31;;;;;;;71.90;38.35;;;;;;;5.96;90.49;101160.16;4960834;28;20058;-51
2021/03/26 02:27:07;;;;;;;73.88;38.33;;;;;;;5.84;91.48;101160.38;4959206;28;20513;-52
2021/03/26 02:29:34;;;;;;;65.22;36.75;;;;;;;5.87;91.07;101160.56;4961253;28;20861;-48
2021/03/26 02:32:04;;;;;;;65.20;34.58;;;;;;;5.75;90.93;101163.31;4959858;28;20154;-54
2021/03/26 02:34:31;;;;;;;66.00;36.25;;;;;;;5.85;91.01;101163.00;4961100;28;20082;-53
2021/03/26 02:37:04;;;;;;;67.93;36.03;;;;;;;5.85;91.55;101152.81;4959509;28;20799;-52
2021/03/26 02:39:42;;;;;;;58.22;34.28;;;;;;;6.92;85.75;101164.97;4962766;28;20062;-55
2021/03/26 02:42:31;;;;;;;60.80;34.38;;;;;;;7.11;84.31;101166.72;4964499;28;20046;-53
2021/03/26 02:45:01;;;;;;;67.15;36.92;;;;;;;6.78;85.23;101165.97;4962927;28;20051;-52
2021/03/26 02:47:38;;;;;;;62.45;36.00;;;;;;;6.45;86.89;101168.63;4964736;28;20065;-51
2021/03/26 02:50:10;;;;;;;64.22;36.90;;;;;;;6.18;88.83;101170.66;4963700;28;20051;-52
2021/03/26 02:52:55;;;;;;;63.70;36.83;;;;;;;6.15;89.44;101173.06;4963835;28;20042;-53
2021/03/26 02:55:34;;;;;;;61.50;35.67;;;;;;;6.49;87.90;101179.84;4961828;28;20058;-51
2021/03/26 02:58:20;;;;;;;62.67;37.45;;;;;;;6.09;89.89;101165.97;4962820;28;20138;-52
2021/03/26 03:01:12;;;;;;;68.10;36.88;;;;;;;6.07;90.15;101166.69;4962347;28;20405;-55
2021/03/26 03:03:41;;;;;;;59.85;34.92;;;;;;;6.07;91.25;101167.56;4963444;28;20043;-53
2021/03/26 03:06:11;;;;;;;73.05;37.83;;;;;;;6.08;91.40;101163.34;4962929;28;20050;-52
2021/03/26 03:08:40;;;;;;;62.28;37.25;;;;;;;6.15;90.81;101169.59;4963740;28;20058;-53
2021/03/26 03:11:21;;;;;;;67.88;37.95;;;;;;;6.02;91.54;101158.81;4963489;28;20051;-53
2021/03/26 03:13:53;;;;;;;73.80;38.38;;;;;;;5.93;91.78;101155.81;4962513;28;20224;-54
2021/03/26 03:16:29;;;;;;;72.15;36.97;;;;;;;5.89;92.80;101146.25;4963955;28;20075;-50
2021/03/26 03:19:00;;;;;;;71.55;40.92;;;;;;;5.84;93.31;101155.31;4962163;28;20055;-53
2021/03/26 03:21:31;;;;;;;69.07;38.78;;;;;;;5.78;93.91;101160.06;4964910;28;20425;-55
2021/03/26 03:24:20;;;;;;;70.25;39.63;;;;;;;5.83;94.42;101153.56;4962048;28;20051;-50
2021/03/26 03:27:01;;;;;;;70.45;37.78;;;;;;;5.79;94.67;101152.53;4962071;28;20424;-53
2021/03/26 03:29:37;;;;;;;67.88;36.45;;;;;;;5.89;94.24;101153.88;4964297;28;20049;-53
2021/03/26 03:32:10;;;;;;;67.15;35.85;;;;;;;5.92;93.87;101151.53;4962523;28;20070;-51
2021/03/26 03:34:39;;;;;;;68.30;37.08;;;;;;;5.92;94.31;101149.00;4963287;28;20740;-52
2021/03/26 03:37:27;;;;;;;68.20;36.92;;;;;;;5.87;93.38;101150.38;4962707;28;20133;-51
2021/03/26 03:40:04;;;;;;;61.45;36.15;;;;;;;5.91;93.63;101144.63;4962852;28;20102;-53
2021/03/26 03:42:51;;;;;;;70.53;37.22;;;;;;;5.91;94.03;101143.78;4963070;28;20055;-51
2021/03/26 03:45:43;;;;;;;68.13;35.78;;;;;;;5.97;93.75;101149.22;4962520;28;20051;-50
2021/03/26 03:48:32;;;;;;;67.13;36.15;;;;;;;6.19;93.09;101154.59;4963759;28;20193;-53
2021/03/26 03:51:18;;;;;;;63.20;35.33;;;;;;;6.11;93.26;101155.88;4961603;28;20687;-55
2021/03/26 03:53:53;;;;;;;64.07;34.80;;;;;;;6.07;94.17;101151.44;4960571;28;20042;-51
2021/03/26 03:56:39;;;;;;;56.95;32.50;;;;;;;5.99;94.38;101152.72;4960089;28;20050;-52
2021/03/26 03:59:11;;;;;;;57.38;34.60;;;;;;;6.03;94.42;101155.50;4962296;28;20055;-52
2021/03/26 04:02:00;;;;;;;56.97;32.55;;;;;;;5.92;94.30;101153.19;4962881;28;20051;-52
2021/03/26 04:04:36;;;;;;;58.92;34.35;;;;;;;5.94;94.84;101147.38;4962561;28;20070;-49
2021/03/26 04:07:14;;;;;;;45.03;25.33;;;;;;;5.94;94.25;101147.38;4961699;28;20065;-52
2021/03/26 04:09:47;;;;;;;57.53;33.05;;;;;;;6.67;92.02;101152.75;4961630;28;20456;-52
2021/03/26 04:12:22;;;;;;;62.03;32.90;;;;;;;7.20;87.69;101161.19;4961570;28;20146;-50
2021/03/26 04:14:59;;;;;;;61.33;33.88;;;;;;;6.70;89.15;101159.66;4961990;28;20053;-48
2021/03/26 04:17:32;;;;;;;58.88;33.95;;;;;;;6.41;90.58;101154.00;4962818;28;20043;-49
2021/03/26 04:20:04;;;;;;;64.97;35.13;;;;;;;6.20;92.70;101152.94;4961160;28;20051;-52
2021/03/26 04:22:40;;;;;;;55.92;35.25;;;;;;;6.23;92.85;101160.72;4963014;28;20055;-49
2021/03/26 04:25:44;;;;;;;58.95;34.88;;;;;;;6.57;90.97;101168.38;4962069;28;20051;-51
2021/03/26 04:28:26;;;;;;;67.93;36.63;;;;;;;6.18;91.68;101160.47;4949820;28;20046;-51
2021/03/26 04:30:57;;;;;;;60.80;34.55;;;;;;;6.12;92.84;101163.59;4961527;28;20058;-54
2021/03/26 04:33:24;;;;;;;64.15;35.38;;;;;;;6.21;93.19;101168.25;4962905;28;20049;-52
2021/03/26 04:35:52;;;;;;;59.60;35.15;;;;;;;6.11;93.78;101161.84;4960661;28;20058;-51
2021/03/26 04:38:22;;;;;;;64.63;35.28;;;;;;;6.06;93.77;101163.28;4962801;28;20053;-51
2021/03/26 04:40:55;;;;;;;67.18;34.50;;;;;;;6.37;92.37;101168.22;4960744;28;20043;-54
2021/03/26 04:43:35;;;;;;;58.28;34.40;;;;;;;6.40;91.69;101161.56;4962660;28;20042;-53
2021/03/26 04:46:26;;;;;;;65.07;36.13;;;;;;;6.05;93.47;101160.63;4960957;28;20062;-52
2021/03/26 04:49:14;;;;;;;61.70;35.70;;;;;;;5.97;94.39;101162.81;4961793;28;20051;-53
2021/03/26 04:51:48;;;;;;;62.20;33.85;;;;;;;6.18;93.66;101167.22;4960981;28;20046;-51
2021/03/26 04:54:29;;;;;;;61.58;34.83;;;;;;;6.17;93.71;101171.44;4959916;28;20456;-53
2021/03/26 04:57:11;;;;;;;59.15;34.65;;;;;;;6.42;92.68;101167.59;4960195;28;20053;-51
2021/03/26 04:59:51;;;;;;;64.13;35.90;;;;;;;6.10;94.02;101169.38;4961670;28;20043;-53
2021/03/26 05:02:20;;;;;;;60.55;35.10;;;;;;;6.07;94.90;101161.59;4959938;28;20034;-53
2021/03/26 05:04:50;;;;;;;56.42;33.05;;;;;;;6.41;93.59;101166.72;4960239;28;20058;-53
2021/03/26 05:07:23;;;;;;;59.75;33.92;;;;;;;6.90;90.88;101164.03;4962022;28;20397;-50
2021/03/26 05:09:54;;;;;;;61.75;31.58;;;;;;;7.29;87.08;101180.31;4960345;28;20420;-53
2021/03/26 05:12:32;;;;;;;60.63;34.70;;;;;;;7.12;88.31;101177.00;4961852;28;20061;-49
2021/03/26 05:15:08;;;;;;;59.17;32.95;;;;;;;6.46;91.24;101170.38;4960484;28;20054;-53
2021/03/26 05:17:52;;;;;;;60.80;33.85;;;;;;;5.99;94.55;101166.28;4961613;28;20176;-53
2021/03/26 05:20:22;;;;;;;59.03;36.05;;;;;;;6.07;94.84;101169.22;4958754;28;20166;-52
2021/03/26 05:22:58;;;;;;;54.50;33.58;;;;;;;6.54;92.97;101179.25;4958989;28;20067;-49
2021/03/26 05:25:46;;;;;;;64.05;32.58;;;;;;;6.68;91.20;101177.41;4961954;28;20065;-52
2021/03/26 05:28:25;;;;;;;61.03;33.50;;;;;;;6.48;91.84;101184.06;4957862;28;20050;-56
2021/03/26 05:30:54;;;;;;;57.63;34.25;;;;;;;6.36;93.15;101175.78;4962566;28;20053;-53
2021/03/26 05:33:20;;;;;;;57.50;33.72;;;;;;;6.29;93.67;101184.78;4961783;28;20047;-51
2021/03/26 05:36:23;;;;;;;55.92;31.92;;;;;;;6.99;90.75;101189.94;4958070;28;20137;-52
2021/03/26 05:39:00;;;;;;;56.15;31.92;;;;;;;6.52;91.97;101193.59;4960672;28;20153;-52
2021/03/26 05:42:05;;;;;;;63.63;35.08;;;;;;;6.54;92.66;101191.09;4961952;28;20134;-50
2021/03/26 05:44:43;;;;;;;53.78;31.45;;;;;;;6.83;90.69;101195.06;4959959;28;20046;-54
2021/03/26 05:47:34;;;;;;;60.35;34.58;;;;;;;6.74;90.67;101202.25;4961612;28;20045;-50
2021/03/26 05:50:13;;;;;;;57.28;32.92;;;;;;;6.72;91.37;101198.78;4962117;28;20055;-52
2021/03/26 05:52:39;;;;;;;59.60;33.10;;;;;;;6.81;91.87;101202.66;4963212;28;20050;-51
2021/03/26 05:55:32;;;;;;;58.92;34.25;;;;;;;6.94;90.50;101216.84;4971288;28;20414;-52
2021/03/26 05:58:25;;;;;;;64.25;37.47;;;;;;;6.71;91.96;101218.28;4963926;28;20051;-50
2021/03/26 06:01:08;;;;;;;63.92;36.78;;;;;;;6.65;92.31;101217.94;4955026;28;20051;-51
2021/03/26 06:04:03;;;;;;;59.13;34.63;;;;;;;6.71;92.49;101219.94;4961773;28;20130;-53
2021/03/26 06:06:54;;;;;;;72.63;38.33;;;;;;;6.41;93.40;101207.41;4956116;28;20058;-49
2021/03/26 06:10:12;;;;;;;65.15;37.63;;;;;;;6.67;92.86;101205.31;4958059;28;20050;-50
2021/03/26 06:13:12;;;;;;;66.55;37.97;;;;;;;6.81;91.74;101197.56;4961459;28;20043;-51
2021/03/26 06:16:11;;;;;;;66.70;37.58;;;;;;;6.51;94.49;101198.56;4962919;28;20049;-51
2021/03/26 06:19:23;;;;;;;74.15;38.33;;;;;;;6.62;94.93;101200.00;4963120;28;20046;-48
2021/03/26 06:22:24;;;;;;;61.53;35.90;;;;;;;7.51;90.90;101209.34;4921287;28;20078;-50
2021/03/26 06:25:17;;;;;;;64.18;35.40;;;;;;;7.81;88.77;101207.31;4963622;28;20380;-48
2021/03/26 06:28:02;;;;;;;70.45;36.92;;;;;;;7.29;91.20;101205.78;4962153;28;20612;-49
2021/03/26 06:30:36;;;;;;;63.67;36.28;;;;;;;7.31;91.62;101209.31;4961492;28;20051;-48
2021/03/26 06:33:31;;;;;;;66.38;36.67;;;;;;;7.61;90.81;101207.28;4962695;28;20149;-47
2021/03/26 06:36:09;;;;;;;63.88;37.85;;;;;;;7.55;90.18;101208.69;4963210;28;20087;-51
2021/03/26 06:38:58;;;;;;;71.50;37.83;;;;;;;7.16;90.90;101203.47;4972252;28;20439;-49
2021/03/26 06:41:44;;;;;;;62.03;37.35;;;;;;;7.22;91.80;101197.81;4960007;28;20042;-47
2021/03/26 06:44:28;;;;;;;66.40;37.58;;;;;;;7.40;91.63;101204.63;4972945;28;20563;-44
2021/03/26 06:47:05;;;;;;;65.82;37.20;;;;;;;7.70;90.81;101204.28;4962826;28;20044;-50
2021/03/26 06:50:02;;;;;;;68.30;36.58;;;;;;;7.38;91.87;101195.16;4962486;28;20459;-45
2021/03/26 06:52:56;;;;;;;60.13;36.53;;;;;;;7.39;92.81;101192.72;4963666;28;20046;-50
2021/03/26 06:55:55;;;;;;;57.75;35.20;;;;;;;7.47;92.36;101200.69;4957801;28;20054;-50
2021/03/26 06:58:41;;;;;;;63.80;34.70;;;;;;;7.68;91.29;101207.59;4962390;28;20055;-48
2021/03/26 07:01:17;;;;;;;;;;;;;;;7.76;91.97;101202.00;4963537;28;20062;-52
2021/03/26 07:03:50;;;;;;;62.53;36.55;;;;;;;8.08;90.22;101207.66;5072781;23;19921;-50
2021/03/26 07:06:55;;;;;;;62.83;35.03;;;;;;;8.06;88.64;101206.75;4993260;28;20168;-50
2021/03/26 07:10:04;;;;;;;65.60;37.15;;;;;;;8.06;88.51;101211.84;4993567;28;20066;-52
2021/03/26 07:13:00;;;;;;;64.10;36.20;;;;;;;9.26;83.44;101217.75;4983311;28;20044;-50
2021/03/26 07:15:36;;;;;;;61.65;36.33;;;;;;;9.78;80.21;101214.63;4977010;28;20046;-48
2021/03/26 07:18:30;;;;;;;65.00;36.83;;;;;;;8.90;83.62;101208.66;4979177;28;20047;-49
2021/03/26 07:21:12;;;;;;;62.50;35.72;;;;;;;9.36;82.46;101215.59;4979999;28;20054;-51
2021/03/26 07:24:06;;;;;;;61.55;36.78;;;;;;;9.56;80.81;101208.69;4978035;28;20496;-50
2021/03/26 07:26:32;;;;;;;62.28;35.55;;;;;;;9.68;80.24;101213.41;4977283;28;20039;-49
2021/03/26 07:29:31;;;;;;;68.20;37.33;;;;;;;9.40;82.42;101204.69;4975610;28;20062;-50
2021/03/26 07:32:21;;;;;;;60.95;34.65;;;;;;;10.69;77.00;101215.34;4980306;28;20552;-53
2021/03/26 07:35:05;;;;;;;62.13;37.95;;;;;;;10.23;78.21;101217.13;4978944;28;20042;-51
2021/03/26 07:37:46;;;;;;;63.05;36.50;;;;;;;10.55;74.65;101218.28;4978556;28;20094;-53
2021/03/26 07:40:50;;;;;;;64.43;37.72;;;;;;;10.79;73.66;101220.78;4972595;28;20054;-50
2021/03/26 07:43:56;;;;;;;65.10;37.97;;;;;;;10.96;73.44;101223.09;4972853;28;20057;-52
2021/03/26 07:46:36;;;;;;;62.65;36.53;;;;;;;11.66;71.26;101226.09;4950206;28;20062;-52
2021/03/26 07:49:22;;;;;;;68.13;37.05;;;;;;;12.16;69.10;101221.59;4977069;28;20053;-51
2021/03/26 07:52:01;;;;;;;64.53;38.05;;;;;;;12.00;68.83;101219.41;4977122;28;20101;-53
2021/03/26 07:54:56;;;;;;;67.63;38.70;;;;;;;11.56;69.77;101227.53;4975143;28;20051;-47
2021/03/26 07:58:00;;;;;;;63.38;37.53;;;;;;;11.79;70.25;101219.63;4980971;28;20057;-50
2021/03/26 08:00:39;;;;;;;66.30;37.75;;;;;;;11.94;69.75;101214.97;4975934;28;20042;-51
2021/03/26 08:03:14;;;;;;;70.28;39.85;;;;;;;11.92;68.04;101207.25;4976240;28;20055;-49
2021/03/26 08:05:58;;;;;;;60.65;38.80;;;;;;;11.77;70.50;101209.31;4964625;28;20042;-48
2021/03/26 08:08:41;;;;;;;67.50;38.22;;;;;;;11.93;69.76;101213.25;4980685;28;20050;-44
2021/03/26 08:11:13;;;;;;;59.80;36.58;;;;;;;12.33;69.34;101214.31;4979526;28;20065;-48
2021/03/26 08:14:24;;;;;;;64.43;36.45;;;;;;;12.60;65.71;101219.31;4977598;28;20054;-46
2021/03/26 08:17:15;;;;;;;60.03;36.33;;;;;;;13.56;63.37;101220.81;4884140;29;20621;-46
2021/03/26 08:20:15;;;;;;;68.75;40.40;;;;;;;14.11;60.45;101227.09;4978561;28;20038;-47
2021/03/26 08:22:54;;;;;;;65.68;37.42;;;;;;;13.67;61.71;101220.19;4962694;28;20771;-48
2021/03/26 08:25:45;;;;;;;66.63;37.88;;;;;;;14.13;61.37;101221.13;4973215;28;20047;-51
2021/03/26 08:28:28;;;;;;;65.63;37.78;;;;;;;14.28;59.64;101228.28;4973884;28;20046;-51
2021/03/26 08:31:09;;;;;;;70.57;38.90;;;;;;;13.95;59.69;101221.63;4981062;28;20397;-47
2021/03/26 08:33:41;;;;;;;63.25;37.85;;;;;;;14.21;59.78;101229.03;4973533;28;20062;-48
2021/03/26 08:36:39;;;;;;;64.97;38.13;;;;;;;14.58;58.52;101220.28;4973196;28;20149;-50
2021/03/26 08:39:28;;;;;;;64.47;36.38;;;;;;;14.34;58.05;101220.69;4973783;28;20054;-47
2021/03/26 08:42:05;;;;;;;69.47;38.90;;;;;;;14.00;58.20;101226.88;4976125;28;20070;-47
2021/03/26 08:44:34;;;;;;;59.33;37.63;;;;;;;13.78;58.61;101227.28;4973151;28;20408;-51
2021/03/26 08:47:04;;;;;;;67.53;38.20;;;;;;;14.17;59.35;101222.06;4975603;28;20795;-55
2021/03/26 08:49:49;;;;;;;60.42;36.25;;;;;;;14.98;56.13;101219.28;4972869;28;20050;-47
2021/03/26 08:52:39;;;;;;;59.55;34.42;;;;;;;14.71;55.48;101221.38;4973758;28;20432;-49
2021/03/26 08:55:17;;;;;;;58.47;33.08;;;;;;;14.98;56.14;101220.97;4974932;28;20062;-47
2021/03/26 08:58:05;;;;;;;55.28;33.25;;;;;;;15.17;55.39;101224.72;4976477;28;20042;-50
2021/03/26 09:01:14;;;;;;;59.45;35.85;;;;;;;15.34;55.22;101225.81;4972462;28;20047;-49
2021/03/26 09:04:18;;;;;;;58.22;33.33;;;;;;;15.62;53.90;101232.28;4951741;28;20093;-51
2021/03/26 09:07:10;;;;;;;56.28;32.50;;;;;;;15.21;54.46;101227.38;4975730;28;20042;-51
2021/03/26 09:09:49;;;;;;;56.90;33.65;;;;;;;14.99;55.32;101223.56;4972731;28;20045;-47
2021/03/26 09:12:26;;;;;;;53.13;31.88;;;;;;;14.99;55.73;101223.56;4970372;28;20050;-45
2021/03/26 09:15:19;;;;;;;53.17;31.15;;;;;;;15.95;52.16;101228.41;4970733;28;20577;-48
2021/03/26 09:17:56;;;;;;;57.03;32.35;;;;;;;15.05;54.77;101221.94;4976093;28;20072;-47
2021/03/26 09:20:39;;;;;;;54.78;33.65;;;;;;;15.54;53.94;101227.00;4974981;28;20073;-49
2021/03/26 09:23:15;;;;;;;57.55;34.63;;;;;;;15.89;53.63;101221.44;4975019;28;20058;-50
2021/03/26 09:25:45;;;;;;;54.17;33.15;;;;;;;17.13;50.05;101227.00;4974537;28;20051;-50
2021/03/26 09:28:37;;;;;;;58.15;32.45;;;;;;;17.51;50.64;101219.47;4974262;28;20125;-48
2021/03/26 09:31:10;;;;;;;56.63;34.03;;;;;;;17.73;48.57;101217.88;4973333;28;20105;-48
2021/03/26 09:33:40;;;;;;;55.97;34.92;;;;;;;16.37;50.40;101219.41;4972355;28;20050;-48
2021/03/26 09:36:21;;;;;;;56.22;34.03;;;;;;;17.36;48.71;101220.25;4970233;28;20487;-49
2021/03/26 09:38:58;;;;;;;51.47;32.67;;;;;;;18.03;46.81;101212.00;4971048;28;20052;-53
2021/03/26 09:41:33;;;;;;;54.70;33.00;;;;;;;17.13;48.31;101221.84;4971458;28;20069;-47
2021/03/26 09:44:19;;;;;;;50.92;32.95;;;;;;;17.41;48.22;101215.97;4973464;28;20461;-46
2021/03/26 09:46:59;;;;;;;54.45;33.83;;;;;;;17.84;47.58;101217.94;4976706;28;20122;-50
2021/03/26 09:49:39;;;;;;;60.40;35.13;;;;;;;18.09;45.09;101209.44;4980458;28;20504;-47
2021/03/26 09:52:21;;;;;;;58.25;32.63;;;;;;;17.76;44.46;101203.25;4980838;28;20062;-53
2021/03/26 09:54:52;;;;;;;55.28;34.58;;;;;;;17.43;46.78;101203.06;4981172;28;20097;-49
2021/03/26 09:57:49;;;;;;;60.75;34.33;;;;;;;17.46;47.66;101196.16;4976663;28;20053;-47
2021/03/26 10:00:40;;;;;;;55.28;34.65;;;;;;;18.04;43.98;101200.78;4976183;28;20046;-50
2021/03/26 10:03:24;;;;;;;62.58;36.75;;;;;;;17.17;46.97;101197.72;4979307;28;20047;-47
2021/03/26 10:06:00;;;;;;;54.35;32.22;;;;;;;18.06;43.32;101199.03;4981017;28;20054;-46
2021/03/26 10:08:44;;;;;;;;;;;;;;;19.26;40.78;101197.41;4978100;28;20049;-46
2021/03/26 10:11:17;;;;;;;51.28;30.48;;;;;;;19.11;40.77;101202.63;4979658;28;19926;-51
2021/03/26 10:13:49;;;;;;;49.53;31.85;;;;;;;20.55;38.35;101196.00;4983521;28;20042;-50
2021/03/26 10:16:24;;;;;;;49.30;29.65;;;;;;;20.06;39.49;101188.50;4975472;28;20058;-48
2021/03/26 10:18:54;;;;;;;52.20;32.10;;;;;;;22.37;34.90;101203.63;4976867;28;20142;-50
2021/03/26 10:21:24;;;;;;;46.22;30.20;;;;;;;20.89;36.02;101192.25;4976598;28;20796;-47
2021/03/26 10:23:53;;;;;;;48.03;30.10;;;;;;;20.83;37.27;101193.19;4976780;28;20760;-48
2021/03/26 10:26:38;;;;;;;44.40;29.17;;;;;;;21.62;35.11;101186.31;4976051;28;20158;-53
2021/03/26 10:29:28;;;;;;;52.65;30.85;;;;;;;22.92;33.70;101189.69;4980465;28;20158;-48
2021/03/26 10:32:06;;;;;;;49.28;30.80;;;;;;;24.34;30.79;101189.44;4980868;28;20058;-51
2021/03/26 10:34:36;;;;;;;50.25;30.80;;;;;;;24.42;30.49;101181.44;4978157;28;20194;-49
2021/03/26 10:37:17;;;;;;;45.90;29.67;;;;;;;25.04;29.55;101192.09;4980067;28;20054;-53
2021/03/26 10:39:50;;;;;;;44.85;28.90;;;;;;;23.80;31.21;101174.09;4983453;28;20049;-50
2021/03/26 10:42:44;;;;;;;42.65;28.02;;;;;;;27.17;26.50;101183.00;4979272;28;20043;-49
2021/03/26 10:45:20;;;;;;;44.10;28.10;;;;;;;25.39;28.08;101188.56;4979141;28;20567;-50
2021/03/26 10:48:08;;;;;;;45.28;28.67;;;;;;;25.19;28.93;101182.13;4980912;28;20049;-46
2021/03/26 10:50:57;;;;;;;44.03;29.17;;;;;;;24.20;31.29;101162.72;4981206;28;20081;-50
2021/03/26 10:53:28;;;;;;;43.83;28.33;;;;;;;24.84;30.09;101153.31;4980350;28;20404;-51
2021/03/26 10:56:21;;;;;;;42.97;27.90;;;;;;;24.92;29.91;101155.75;4975798;28;20078;-46
2021/03/26 10:58:55;;;;;;;41.08;28.40;;;;;;;27.20;26.20;101154.00;4980489;28;20439;-50
2021/03/26 11:01:24;;;;;;;41.22;29.02;;;;;;;25.61;28.21;101156.50;4972485;28;20054;-49
2021/03/26 11:04:15;;;;;;;41.97;26.80;;;;;;;27.61;25.00;101156.88;4973273;28;20088;-47
2021/03/26 11:06:45;;;;;;;44.10;28.60;;;;;;;25.44;28.46;101145.63;4977807;28;20063;-52
2021/03/26 11:09:23;;;;;;;39.17;25.95;;;;;;;27.49;25.32;101146.78;4972548;28;20053;-53
2021/03/26 11:12:03;;;;;;;37.80;27.10;;;;;;;26.87;25.12;101141.09;4978974;28;20050;-48
2021/03/26 11:14:39;;;;;;;40.00;27.45;;;;;;;25.86;26.90;101147.00;4974386;28;20043;-51
2021/03/26 11:17:18;;;;;;;41.17;27.55;;;;;;;23.00;31.13;101124.25;4977018;28;20061;-49
2021/03/26 11:20:04;;;;;;;38.13;26.33;;;;;;;19.82;36.65;101124.47;4978079;28;20057;-46
2021/03/26 11:22:33;;;;;;;42.90;24.75;;;;;;;21.71;34.11;101130.59;4974522;28;20043;-54
2021/03/26 11:25:10;;;;;;;40.25;24.85;;;;;;;21.07;35.52;101119.19;4977528;28;20539;-53
2021/03/26 11:27:49;;;;;;;41.60;26.38;;;;;;;20.65;35.87;101117.88;4974689;28;24118;-46
2021/03/26 11:30:34;;;;;;;42.13;26.13;;;;;;;19.78;37.25;101109.81;4976849;28;20050;-52
2021/03/26 11:33:12;;;;;;;36.33;23.80;;;;;;;20.56;36.83;101116.19;4975294;28;20061;-49
2021/03/26 11:35:42;;;;;;;41.95;25.42;;;;;;;19.97;37.43;101117.50;4976675;28;20125;-51
2021/03/26 11:38:18;;;;;;;44.80;25.85;;;;;;;19.97;37.31;101115.75;4972153;28;20047;-53
2021/03/26 11:41:09;;;;;;;42.33;25.88;;;;;;;19.84;37.70;101114.09;4977492;28;20050;-49
2021/03/26 11:43:49;;;;;;;43.10;24.17;;;;;;;19.25;38.63;101112.59;4974222;28;20049;-48
2021/03/26 11:46:20;;;;;;;44.35;25.45;;;;;;;18.95;40.24;101096.25;4975714;28;20054;-51
2021/03/26 11:48:58;;;;;;;43.95;25.38;;;;;;;19.18;39.28;101098.78;4973595;28;20145;-48
2021/03/26 11:51:48;;;;;;;38.45;25.02;;;;;;;18.85;41.03;101096.25;4976243;28;20051;-49
2021/03/26 11:54:39;;;;;;;44.33;25.05;;;;;;;20.48;37.57;101087.66;4977287;28;20493;-52
2021/03/26 11:57:18;;;;;;;41.72;26.75;;;;;;;22.77;33.34;101096.78;4974921;28;20078;-51
2021/03/26 12:00:03;;;;;;;44.05;26.35;;;;;;;24.84;30.69;101098.31;4977466;28;20417;-50
2021/03/26 12:02:35;;;;;;;38.60;24.65;;;;;;;25.34;29.13;101095.22;4973405;28;20417;-51
2021/03/26 12:05:29;;;;;;;42.70;27.33;;;;;;;23.56;31.22;101091.75;4976586;28;20544;-50
2021/03/26 12:08:41;;;;;;;44.20;26.95;;;;;;;21.82;34.23;101077.44;4971456;28;20051;-51
2021/03/26 12:11:15;;;;;;;41.63;26.42;;;;;;;21.41;34.94;101088.44;4974484;28;20057;-50